Time;durP1;ratioP1;P1;durP2;ratioP2;P2;SDS_P1;SDS_P2;PMS_P1;PMS_P2;Temp;Humidity;BMP_temperature;BMP_pressure;BME280_temperature;BME280_humidity;BME280_pressure;Samples;Min_cycle;Max_cycle;Signal;HPM_P1;HPM_P2
2024/02/05 00:00:20;;;;;;;7.18;1.67;;;22.10;93.10;;;;;;5061197;28;20162;-59
2024/02/05 00:02:47;;;;;;;7.22;1.40;;;22.10;93.30;;;;;;5062212;28;20171;-56
2024/02/05 00:05:13;;;;;;;5.85;1.63;;;22.00;93.50;;;;;;5062682;28;20115;-52
2024/02/05 00:07:40;;;;;;;10.38;1.70;;;21.80;93.70;;;;;;5062798;28;20433;-58
2024/02/05 00:10:07;;;;;;;9.30;1.80;;;21.70;93.70;;;;;;5059234;28;20109;-60
2024/02/05 00:12:34;;;;;;;7.90;1.83;;;21.70;93.80;;;;;;5061588;28;20101;-51
2024/02/05 00:15:01;;;;;;;13.15;3.00;;;21.60;93.90;;;;;;5057298;28;20084;-50
2024/02/05 00:17:27;;;;;;;5.78;2.45;;;21.60;94.00;;;;;;5060620;28;20533;-52
2024/02/05 00:19:54;;;;;;;5.68;2.35;;;21.70;94.00;;;;;;5061506;28;20156;-50
2024/02/05 00:22:20;;;;;;;7.70;1.48;;;21.70;94.40;;;;;;5058560;28;20115;-59
2024/02/05 00:24:47;;;;;;;10.82;2.00;;;21.90;94.30;;;;;;5063890;28;20558;-57
2024/02/05 00:27:13;;;;;;;12.40;1.98;;;21.80;94.30;;;;;;5061545;28;21149;-58
2024/02/05 00:29:40;;;;;;;10.82;2.75;;;21.60;94.00;;;;;;5063877;28;20105;-57
2024/02/05 00:32:06;;;;;;;12.68;2.28;;;21.40;92.50;;;;;;5061262;28;20081;-54
2024/02/05 00:34:33;;;;;;;8.00;2.80;;;21.30;92.80;;;;;;5061115;28;20091;-58
2024/02/05 00:36:59;;;;;;;10.35;3.13;;;21.40;93.50;;;;;;5062084;28;20062;-53
2024/02/05 00:39:26;;;;;;;10.73;2.60;;;21.80;93.30;;;;;;5062256;28;20069;-55
2024/02/05 00:41:52;;;;;;;8.98;2.13;;;22.10;92.60;;;;;;5060491;28;20073;-54
2024/02/05 00:44:19;;;;;;;8.10;2.63;;;21.40;92.60;;;;;;5062345;28;20082;-51
2024/02/05 00:46:45;;;;;;;7.75;2.30;;;20.90;92.80;;;;;;5059513;28;20787;-53
2024/02/05 00:49:12;;;;;;;14.18;2.30;;;20.70;92.40;;;;;;5060550;28;20569;-53
2024/02/05 00:51:38;;;;;;;8.38;2.50;;;20.50;92.90;;;;;;5060701;28;20082;-55
2024/02/05 00:54:05;;;;;;;8.02;2.40;;;20.40;93.00;;;;;;5060876;28;21723;-50
2024/02/05 00:56:33;;;;;;;12.50;2.55;;;20.30;93.20;;;;;;5060678;28;20074;-61
2024/02/05 00:59:00;;;;;;;12.35;2.83;;;20.20;93.30;;;;;;5061317;28;20483;-55
2024/02/05 01:01:26;;;;;;;12.27;3.13;;;20.10;93.10;;;;;;5060331;28;20073;-59
2024/02/05 01:03:53;;;;;;;11.77;2.97;;;20.00;93.20;;;;;;5064598;28;20110;-52
2024/02/05 01:06:19;;;;;;;8.52;2.50;;;20.00;93.40;;;;;;5059653;28;20084;-54
2024/02/05 01:08:47;;;;;;;11.60;2.55;;;19.90;93.70;;;;;;5059821;28;20104;-58
2024/02/05 01:11:15;;;;;;;12.45;2.67;;;19.90;93.80;;;;;;5061513;28;20410;-53
2024/02/05 01:13:42;;;;;;;13.15;2.55;;;19.80;94.10;;;;;;5061591;28;21320;-54
2024/02/05 01:16:09;;;;;;;8.68;3.08;;;19.80;94.30;;;;;;5059790;28;20084;-53
2024/02/05 01:18:36;;;;;;;13.20;3.38;;;19.70;94.60;;;;;;5059127;28;20105;-56
2024/02/05 01:21:04;;;;;;;11.68;2.92;;;19.60;94.60;;;;;;5057399;28;20152;-56
2024/02/05 01:23:31;;;;;;;17.50;2.60;;;19.60;94.70;;;;;;5059934;28;20101;-60
2024/02/05 01:25:57;;;;;;;22.40;3.63;;;19.60;94.90;;;;;;5062762;28;20449;-59
2024/02/05 01:28:24;;;;;;;15.00;3.65;;;19.50;95.20;;;;;;5058998;28;20191;-56
2024/02/05 01:30:50;;;;;;;15.02;3.10;;;19.50;95.40;;;;;;5056958;28;20101;-55
2024/02/05 01:33:17;;;;;;;17.08;2.92;;;19.40;95.80;;;;;;5059860;28;20076;-54
2024/02/05 01:35:43;;;;;;;28.73;4.28;;;19.40;96.30;;;;;;5058351;28;20073;-54
2024/02/05 01:38:10;;;;;;;18.52;3.70;;;19.30;96.60;;;;;;5060392;28;20544;-56
2024/02/05 01:40:36;;;;;;;12.45;4.05;;;19.20;97.00;;;;;;5063061;28;20091;-59
2024/02/05 01:43:03;;;;;;;18.20;5.00;;;19.10;97.50;;;;;;5066663;28;20517;-58
2024/02/05 01:45:30;;;;;;;22.42;4.38;;;19.10;97.90;;;;;;5064544;28;20101;-54
2024/02/05 01:47:56;;;;;;;24.77;5.47;;;19.00;98.30;;;;;;5064147;28;20076;-56
2024/02/05 01:50:23;;;;;;;21.95;6.65;;;19.00;98.70;;;;;;5063972;28;20097;-56
2024/02/05 01:52:50;;;;;;;29.65;7.47;;;18.90;98.90;;;;;;5060665;28;20456;-57
2024/02/05 01:55:21;;;;;;;26.85;5.22;;;18.90;99.10;;;;;;5067479;28;20073;-57
2024/02/05 01:57:48;;;;;;;23.00;4.32;;;18.80;99.40;;;;;;5066555;28;20081;-53
2024/02/05 02:00:15;;;;;;;23.13;3.95;;;18.80;99.60;;;;;;5063723;28;20083;-55
2024/02/05 02:02:43;;;;;;;25.00;3.60;;;18.70;99.90;;;;;;5063719;28;20077;-53
2024/02/05 02:05:11;;;;;;;16.63;3.22;;;18.70;99.90;;;;;;5061829;28;20066;-51
2024/02/05 02:07:38;;;;;;;22.85;3.40;;;18.60;99.90;;;;;;5064144;28;20118;-55
2024/02/05 02:10:05;;;;;;;14.77;3.00;;;18.60;99.70;;;;;;5061545;28;20113;-54
2024/02/05 02:12:31;;;;;;;13.77;3.97;;;18.60;99.60;;;;;;5066668;28;20077;-49
2024/02/05 02:14:58;;;;;;;17.75;4.28;;;18.50;99.60;;;;;;5065308;28;20104;-56
2024/02/05 02:17:28;;;;;;;15.90;3.78;;;18.40;99.70;;;;;;5060952;28;20077;-60
2024/02/05 02:19:55;;;;;;;16.35;3.55;;;18.50;99.40;;;;;;5064843;28;20081;-60
2024/02/05 02:22:45;;;;;;;17.17;3.20;;;18.40;99.50;;;;;;5062812;28;20080;-58
2024/02/05 02:25:12;;;;;;;15.65;2.92;;;18.30;99.50;;;;;;5062385;28;20081;-58
2024/02/05 02:27:42;;;;;;;15.23;2.83;;;18.30;99.70;;;;;;5065272;28;20533;-58
2024/02/05 02:30:11;;;;;;;14.95;2.78;;;18.30;99.90;;;;;;5063141;28;20151;-58
2024/02/05 02:32:59;;;;;;;16.27;3.15;;;18.30;99.90;;;;;;5063766;28;20449;-58
2024/02/05 02:35:33;;;;;;;11.68;2.63;;;18.30;99.70;;;;;;5061678;28;20073;-59
2024/02/05 02:38:20;;;;;;;12.80;3.03;;;18.20;99.30;;;;;;5062102;28;20200;-58
2024/02/05 02:40:52;;;;;;;8.30;2.83;;;18.20;99.30;;;;;;5069209;28;20073;-61
2024/02/05 02:43:21;;;;;;;17.60;3.60;;;18.10;99.10;;;;;;5061252;28;20110;-60
2024/02/05 02:45:51;;;;;;;20.02;4.30;;;18.10;98.90;;;;;;5061430;28;20646;-60
2024/02/05 02:48:17;;;;;;;14.50;3.00;;;18.10;98.80;;;;;;5062162;28;20077;-61
2024/02/05 02:50:44;;;;;;;13.15;3.33;;;18.10;98.80;;;;;;5064028;28;20081;-60
2024/02/05 02:53:10;;;;;;;14.52;3.35;;;18.10;98.80;;;;;;5062230;28;20092;-61
2024/02/05 02:55:37;;;;;;;16.00;4.07;;;18.10;98.70;;;;;;5063668;28;20076;-60
2024/02/05 02:58:03;;;;;;;12.32;3.38;;;18.00;98.50;;;;;;5066631;28;20126;-60
2024/02/05 03:00:30;;;;;;;13.00;3.97;;;18.00;98.50;;;;;;5062703;28;20445;-61
2024/02/05 03:02:56;;;;;;;16.42;4.53;;;17.90;98.50;;;;;;5061133;28;20572;-61
2024/02/05 03:05:23;;;;;;;13.75;4.43;;;17.90;98.70;;;;;;5061732;28;20884;-59
2024/02/05 03:07:49;;;;;;;21.50;4.32;;;17.80;99.20;;;;;;5066537;28;20159;-57
2024/02/05 03:10:16;;;;;;;15.60;4.53;;;17.80;98.90;;;;;;5065223;28;20568;-58
2024/02/05 03:12:42;;;;;;;18.42;4.47;;;17.80;99.10;;;;;;5064266;28;20095;-59
2024/02/05 03:15:09;;;;;;;12.52;4.40;;;17.80;99.40;;;;;;5061096;28;20095;-61
2024/02/05 03:17:35;;;;;;;23.88;4.53;;;17.70;99.70;;;;;;5061613;28;20077;-59
2024/02/05 03:20:02;;;;;;;16.88;4.53;;;17.70;99.90;;;;;;5061323;28;20080;-57
2024/02/05 03:22:29;;;;;;;25.58;4.32;;;17.60;99.90;;;;;;5061586;28;20152;-58
2024/02/05 03:24:55;;;;;;;13.20;4.88;;;17.60;99.90;;;;;;5063183;28;20073;-59
2024/02/05 03:27:21;;;;;;;20.35;5.47;;;17.50;99.90;;;;;;5061602;28;20099;-61
2024/02/05 03:29:48;;;;;;;21.83;4.65;;;17.50;99.90;;;;;;5063861;28;20101;-57
2024/02/05 03:32:14;;;;;;;18.50;4.78;;;17.40;99.90;;;;;;5062091;28;20156;-58
2024/02/05 03:34:41;;;;;;;20.70;5.05;;;17.40;99.90;;;;;;5061240;28;20077;-59
2024/02/05 03:37:07;;;;;;;22.83;4.82;;;17.40;99.80;;;;;;5060001;28;20071;-59
2024/02/05 03:39:34;;;;;;;18.65;3.88;;;17.40;99.80;;;;;;5061380;28;20088;-58
2024/02/05 03:42:00;;;;;;;18.42;4.20;;;17.30;99.80;;;;;;5061472;28;20081;-58
2024/02/05 03:44:27;;;;;;;14.93;3.90;;;17.40;99.90;;;;;;5060127;28;20112;-62
2024/02/05 03:46:53;;;;;;;17.85;5.00;;;17.30;99.90;;;;;;5063170;28;20414;-56
2024/02/05 03:49:20;;;;;;;20.73;4.90;;;17.30;99.90;;;;;;5063386;28;20101;-57
2024/02/05 03:51:46;;;;;;;16.70;4.63;;;17.30;99.90;;;;;;5064008;28;20122;-59
2024/02/05 03:54:13;;;;;;;23.63;4.80;;;17.20;99.90;;;;;;5061484;28;20532;-59
2024/02/05 03:56:42;;;;;;;13.80;3.33;;;17.20;99.90;;;;;;5060014;28;20065;-59
2024/02/05 03:59:10;;;;;;;13.88;3.63;;;17.20;99.90;;;;;;5060333;28;20238;-58
2024/02/05 04:01:36;;;;;;;12.43;3.65;;;17.10;99.90;;;;;;5060297;28;20184;-59
2024/02/05 04:04:03;;;;;;;17.80;3.85;;;17.20;99.90;;;;;;5058078;28;20085;-58
2024/02/05 04:06:30;;;;;;;18.38;4.63;;;17.10;99.90;;;;;;5060368;28;20077;-59
2024/02/05 04:08:57;;;;;;;25.85;5.68;;;17.10;99.90;;;;;;5061439;28;20195;-59
2024/02/05 04:11:23;;;;;;;26.05;5.72;;;17.10;99.90;;;;;;5057415;28;20082;-58
2024/02/05 04:13:50;;;;;;;26.63;7.07;;;17.00;99.90;;;;;;5061050;28;20085;-59
2024/02/05 04:16:16;;;;;;;22.55;7.05;;;17.00;99.90;;;;;;5059517;28;20081;-59
2024/02/05 04:18:43;;;;;;;23.63;6.07;;;17.00;99.90;;;;;;5062409;28;20596;-59
2024/02/05 04:21:09;;;;;;;22.27;7.50;;;17.00;99.90;;;;;;5060444;28;20069;-60
2024/02/05 04:23:36;;;;;;;21.15;7.60;;;17.00;99.90;;;;;;5059447;28;21573;-60
2024/02/05 04:26:04;;;;;;;26.63;8.57;;;17.00;99.90;;;;;;5061692;28;20078;-60
2024/02/05 04:28:33;;;;;;;25.95;8.95;;;17.00;99.90;;;;;;5061506;28;20085;-59
2024/02/05 04:31:00;;;;;;;26.73;10.02;;;16.90;99.90;;;;;;5063068;28;20130;-58
2024/02/05 04:33:27;;;;;;;33.08;7.85;;;16.90;99.90;;;;;;5062158;28;20077;-59
2024/02/05 04:35:53;;;;;;;23.30;7.40;;;16.90;99.90;;;;;;5063295;28;20077;-59
2024/02/05 04:38:20;;;;;;;22.00;5.90;;;16.80;99.90;;;;;;5061608;28;20471;-59
2024/02/05 04:40:46;;;;;;;16.42;5.15;;;16.80;99.90;;;;;;5062681;28;20131;-59
2024/02/05 04:43:13;;;;;;;19.70;4.68;;;16.80;99.90;;;;;;5060555;28;20444;-58
2024/02/05 04:45:39;;;;;;;25.13;5.38;;;16.70;99.90;;;;;;5056985;28;20112;-58
2024/02/05 04:48:06;;;;;;;20.10;5.65;;;16.70;99.90;;;;;;5058465;28;20077;-59
2024/02/05 04:50:33;;;;;;;18.98;4.80;;;16.70;99.90;;;;;;5058060;28;20093;-68
2024/02/05 04:52:59;;;;;;;19.60;4.45;;;16.70;99.90;;;;;;5061033;28;20160;-68
2024/02/05 04:55:26;;;;;;;15.38;4.13;;;16.90;99.90;;;;;;5060445;28;20077;-68
2024/02/05 04:57:52;;;;;;;17.73;3.80;;;17.20;99.90;;;;;;5061573;28;20126;-62
2024/02/05 05:00:21;;;;;;;16.83;3.83;;;17.30;99.90;;;;;;5061573;28;20084;-67
2024/02/05 05:02:48;;;;;;;14.13;2.90;;;17.50;99.90;;;;;;5058497;28;20116;-64
2024/02/05 05:05:15;;;;;;;20.65;4.05;;;17.60;99.90;;;;;;5057671;28;20096;-69
2024/02/05 05:07:41;;;;;;;22.40;4.10;;;17.50;99.90;;;;;;5056085;28;20085;-67
2024/02/05 05:10:08;;;;;;;18.35;3.42;;;17.50;99.90;;;;;;5061356;28;20105;-69
2024/02/05 05:12:35;;;;;;;11.30;3.50;;;17.50;99.90;;;;;;5057438;28;20066;-67
2024/02/05 05:15:01;;;;;;;15.82;3.42;;;17.40;99.90;;;;;;5066617;28;20099;-68
2024/02/05 05:17:28;;;;;;;17.40;3.28;;;17.30;99.90;;;;;;5068048;28;20105;-69
2024/02/05 05:19:54;;;;;;;12.55;3.95;;;17.30;99.90;;;;;;5067177;28;20953;-68
2024/02/05 05:22:21;;;;;;;14.10;4.18;;;17.30;99.90;;;;;;5069207;28;20160;-68
2024/02/05 05:24:47;;;;;;;15.00;3.95;;;17.30;99.90;;;;;;5080620;28;20077;-69
2024/02/05 05:27:14;;;;;;;16.15;4.63;;;17.30;99.90;;;;;;5070706;28;20072;-68
2024/02/05 05:29:40;;;;;;;10.75;2.80;;;17.20;99.90;;;;;;5072181;28;20191;-67
2024/02/05 05:32:07;;;;;;;17.88;3.80;;;17.20;99.90;;;;;;5069464;28;20073;-68
2024/02/05 05:34:33;;;;;;;15.70;3.50;;;17.20;99.90;;;;;;5068849;28;20486;-66
2024/02/05 05:37:00;;;;;;;16.50;3.80;;;17.10;99.90;;;;;;5068174;28;20156;-69
2024/02/05 05:39:26;;;;;;;12.77;3.78;;;17.00;99.90;;;;;;5066378;28;20104;-70
2024/02/05 05:41:53;;;;;;;12.10;3.67;;;16.90;99.90;;;;;;5068105;28;20111;-70
2024/02/05 05:44:19;;;;;;;12.60;3.58;;;16.90;99.90;;;;;;5063545;28;20095;-69
2024/02/05 05:46:47;;;;;;;18.48;4.18;;;17.00;99.90;;;;;;5066605;28;20133;-64
2024/02/05 05:49:13;;;;;;;12.57;3.20;;;16.90;99.90;;;;;;5068657;28;20099;-67
2024/02/05 05:51:40;;;;;;;13.38;3.78;;;16.90;99.90;;;;;;5066400;28;20548;-71
2024/02/05 05:54:06;;;;;;;19.15;3.47;;;16.80;99.90;;;;;;5076903;28;20072;-64
2024/02/05 05:56:33;;;;;;;17.77;3.78;;;16.90;99.90;;;;;;5067997;28;20073;-72
2024/02/05 05:59:00;;;;;;;8.23;3.17;;;17.00;99.90;;;;;;5071980;28;20064;-65
2024/02/05 06:01:26;;;;;;;15.10;3.33;;;16.90;99.90;;;;;;5065814;28;20090;-66
2024/02/05 06:03:52;;;;;;;12.05;4.00;;;16.80;99.90;;;;;;5068147;28;20513;-67
2024/02/05 06:06:19;;;;;;;12.35;3.58;;;16.90;99.90;;;;;;5068251;28;20521;-61
2024/02/05 06:08:46;;;;;;;17.88;3.80;;;16.70;99.90;;;;;;5067826;28;20101;-64
2024/02/05 06:11:12;;;;;;;13.60;3.95;;;16.90;99.90;;;;;;5066040;28;20598;-68
2024/02/05 06:13:38;;;;;;;18.13;4.00;;;16.80;99.90;;;;;;5068784;28;20084;-68
2024/02/05 06:16:08;;;;;;;14.75;4.03;;;16.70;99.90;;;;;;5065711;28;20073;-68
2024/02/05 06:18:35;;;;;;;17.88;3.92;;;16.70;99.90;;;;;;5067457;28;20104;-65
2024/02/05 06:21:01;;;;;;;14.82;4.30;;;16.70;99.90;;;;;;5067354;28;20077;-71
2024/02/05 06:23:28;;;;;;;17.30;4.55;;;16.60;99.90;;;;;;5072234;28;20552;-68
2024/02/05 06:25:54;;;;;;;13.88;4.03;;;16.60;99.90;;;;;;5066510;28;20140;-67
2024/02/05 06:28:21;;;;;;;17.05;4.22;;;16.60;99.90;;;;;;5065951;28;20559;-69
2024/02/05 06:30:49;;;;;;;19.88;4.55;;;16.50;99.90;;;;;;5066065;28;20077;-65
2024/02/05 06:33:16;;;;;;;16.88;4.07;;;16.40;99.90;;;;;;5073945;28;20073;-65
2024/02/05 06:35:44;;;;;;;15.32;4.40;;;16.40;99.90;;;;;;5066955;28;20525;-66
2024/02/05 06:38:10;;;;;;;21.73;9.35;;;16.40;99.90;;;;;;5064673;28;20077;-64
2024/02/05 06:40:37;;;;;;;18.10;6.50;;;16.40;99.90;;;;;;5067978;28;20080;-63
2024/02/05 06:43:06;;;;;;;17.77;5.95;;;16.30;99.90;;;;;;5066299;28;20080;-69
2024/02/05 06:45:37;;;;;;;17.80;8.80;;;16.20;99.90;;;;;;5067498;28;20736;-65
2024/02/05 06:48:04;;;;;;;16.63;6.28;;;16.10;99.90;;;;;;5066011;28;20073;-65
2024/02/05 06:50:31;;;;;;;21.13;6.50;;;16.10;99.90;;;;;;5069175;28;20136;-67
2024/02/05 06:52:58;;;;;;;18.05;6.82;;;16.10;99.90;;;;;;5067889;28;20540;-67
2024/02/05 06:55:24;;;;;;;13.40;5.93;;;16.00;99.90;;;;;;5066935;28;20579;-65
2024/02/05 06:57:51;;;;;;;30.98;21.45;;;16.00;99.90;;;;;;5068409;28;20100;-65
2024/02/05 07:00:17;;;;;;;13.13;5.22;;;16.00;99.90;;;;;;5066912;28;20184;-66
2024/02/05 07:02:44;;;;;;;17.08;5.90;;;16.00;99.90;;;;;;5066733;28;20074;-68
2024/02/05 07:05:10;;;;;;;13.95;6.03;;;16.00;99.90;;;;;;5070950;28;20109;-65
2024/02/05 07:07:37;;;;;;;14.60;5.90;;;16.00;99.90;;;;;;5066275;28;20130;-64
2024/02/05 07:10:05;;;;;;;22.25;5.88;;;15.90;99.90;;;;;;5067234;28;20100;-64
2024/02/05 07:12:31;;;;;;;16.17;5.07;;;15.80;99.90;;;;;;5067261;28;20073;-65
2024/02/05 07:14:58;;;;;;;19.13;4.75;;;15.70;99.90;;;;;;5070054;28;20081;-67
2024/02/05 07:17:32;;;;;;;18.00;5.30;;;15.70;99.90;;;;;;5070322;28;20069;-66
2024/02/05 07:20:01;;;;;;;22.27;5.53;;;15.80;99.90;;;;;;5067617;28;20086;-66
2024/02/05 07:22:30;;;;;;;15.10;4.45;;;15.70;99.90;;;;;;5065900;28;20088;-64
2024/02/05 07:24:57;;;;;;;18.70;4.55;;;15.60;99.90;;;;;;5066016;28;20073;-68
2024/02/05 07:27:26;;;;;;;19.20;4.57;;;15.60;99.90;;;;;;5075049;28;20073;-68
2024/02/05 07:29:52;;;;;;;9.48;4.03;;;15.60;99.90;;;;;;5067801;28;20105;-63
2024/02/05 07:32:19;;;;;;;12.05;3.72;;;15.60;99.90;;;;;;5071947;28;20524;-66
2024/02/05 07:34:47;;;;;;;13.80;4.20;;;15.60;99.90;;;;;;5068045;28;20112;-65
2024/02/05 07:37:13;;;;;;;11.35;3.85;;;15.60;99.90;;;;;;5067701;28;20133;-65
2024/02/05 07:39:40;;;;;;;18.17;4.18;;;15.60;99.90;;;;;;5066416;28;20080;-67
2024/02/05 07:42:07;;;;;;;15.93;4.75;;;15.40;99.90;;;;;;5067502;28;20503;-65
2024/02/05 07:44:34;;;;;;;13.20;5.30;;;15.40;99.90;;;;;;5066227;28;20085;-67
2024/02/05 07:47:00;;;;;;;13.88;5.80;;;15.40;99.90;;;;;;5067690;28;20108;-67
2024/02/05 07:49:27;;;;;;;13.73;5.03;;;15.30;99.90;;;;;;5067413;28;20767;-66
2024/02/05 07:51:55;;;;;;;13.80;4.95;;;15.40;99.90;;;;;;5067573;28;20110;-65
2024/02/05 07:54:25;;;;;;;13.38;3.83;;;15.40;99.90;;;;;;5067089;28;20532;-64
2024/02/05 07:56:52;;;;;;;14.13;3.75;;;15.30;99.90;;;;;;5072887;28;20073;-65
2024/02/05 07:59:18;;;;;;;11.15;3.42;;;15.30;99.90;;;;;;5077594;28;20509;-64
2024/02/05 08:01:46;;;;;;;10.85;2.92;;;15.30;99.90;;;;;;5071663;28;20085;-65
2024/02/05 08:04:13;;;;;;;10.75;3.13;;;15.30;99.90;;;;;;5065311;28;20430;-66
2024/02/05 08:06:39;;;;;;;10.38;2.67;;;15.30;99.90;;;;;;5072041;28;20077;-65
2024/02/05 08:09:06;;;;;;;12.60;3.08;;;15.30;99.90;;;;;;5074011;28;20119;-67
2024/02/05 08:11:32;;;;;;;9.18;2.85;;;15.30;99.90;;;;;;5068921;28;20539;-64
2024/02/05 08:13:59;;;;;;;14.15;3.38;;;15.30;99.90;;;;;;5066476;28;20073;-66
2024/02/05 08:16:25;;;;;;;11.98;3.38;;;15.30;99.90;;;;;;5066459;28;20096;-65
2024/02/05 08:18:52;;;;;;;11.52;3.70;;;15.40;99.90;;;;;;5066449;28;20085;-64
2024/02/05 08:21:19;;;;;;;13.13;3.90;;;15.30;99.90;;;;;;5066578;28;20099;-66
2024/02/05 08:23:50;;;;;;;10.82;4.28;;;15.30;99.90;;;;;;5064839;28;20081;-66
2024/02/05 08:26:18;;;;;;;10.90;4.05;;;15.30;99.90;;;;;;5066095;28;20073;-61
2024/02/05 08:28:46;;;;;;;16.90;4.43;;;15.20;99.90;;;;;;5066890;28;20494;-65
2024/02/05 08:31:13;;;;;;;18.73;4.88;;;15.20;99.90;;;;;;5067463;28;20084;-65
2024/02/05 08:33:39;;;;;;;10.20;4.15;;;15.30;99.90;;;;;;5065336;28;20077;-65
2024/02/05 08:36:06;;;;;;;17.50;4.57;;;15.30;99.90;;;;;;5066132;28;20156;-65
2024/02/05 08:38:32;;;;;;;12.85;4.15;;;15.20;99.90;;;;;;5065333;28;20084;-65
2024/02/05 08:40:59;;;;;;;12.70;5.07;;;15.20;99.90;;;;;;5064184;28;20081;-68
2024/02/05 08:43:25;;;;;;;8.85;4.13;;;15.10;99.90;;;;;;5065711;28;20116;-63
2024/02/05 08:45:52;;;;;;;11.75;3.60;;;15.00;99.90;;;;;;5065253;28;20521;-66
2024/02/05 08:48:18;;;;;;;11.30;3.53;;;14.90;99.90;;;;;;5063734;28;20069;-66
2024/02/05 08:50:45;;;;;;;11.10;3.33;;;14.90;99.90;;;;;;5066313;28;20093;-64
2024/02/05 08:53:11;;;;;;;7.35;2.50;;;14.80;99.90;;;;;;5067249;28;20440;-62
2024/02/05 08:55:38;;;;;;;9.10;2.80;;;14.80;99.90;;;;;;5065668;28;20069;-66
2024/02/05 08:58:05;;;;;;;13.85;3.00;;;14.70;99.90;;;;;;5066391;28;20073;-64
2024/02/05 09:00:32;;;;;;;11.43;3.13;;;14.70;99.90;;;;;;5066987;28;20159;-65
2024/02/05 09:02:59;;;;;;;7.22;2.90;;;14.60;99.90;;;;;;5083654;28;20080;-65
2024/02/05 09:05:25;;;;;;;9.02;3.22;;;14.70;99.90;;;;;;5065813;28;20084;-62
2024/02/05 09:07:51;;;;;;;8.63;2.50;;;14.70;99.90;;;;;;5066253;28;20069;-65
2024/02/05 09:10:19;;;;;;;9.45;3.13;;;14.80;99.90;;;;;;5065916;28;20123;-65
2024/02/05 09:12:45;;;;;;;9.52;3.30;;;14.80;99.90;;;;;;5066482;28;20080;-64
2024/02/05 09:15:13;;;;;;;11.90;3.45;;;14.80;99.90;;;;;;5065177;28;21491;-67
2024/02/05 09:17:39;;;;;;;11.57;3.97;;;14.90;99.90;;;;;;5065836;28;20463;-65
2024/02/05 09:20:06;;;;;;;12.07;3.72;;;14.80;99.90;;;;;;5066714;28;20119;-66
2024/02/05 09:22:33;;;;;;;11.80;4.53;;;14.90;99.90;;;;;;5065216;28;20065;-62
2024/02/05 09:24:59;;;;;;;18.23;10.57;;;15.00;99.90;;;;;;5065636;28;20253;-67
2024/02/05 09:27:26;;;;;;;16.35;9.93;;;15.00;99.90;;;;;;5064903;28;20127;-66
2024/02/05 09:29:53;;;;;;;9.75;4.72;;;14.90;99.90;;;;;;5067311;28;20104;-64
2024/02/05 09:32:19;;;;;;;15.48;4.07;;;14.90;99.90;;;;;;5073081;28;20548;-64
2024/02/05 09:34:46;;;;;;;16.92;5.10;;;14.90;99.90;;;;;;5064550;28;20503;-63
2024/02/05 09:37:13;;;;;;;12.75;3.60;;;14.70;99.90;;;;;;5065520;28;20108;-64
2024/02/05 09:39:39;;;;;;;9.57;3.60;;;14.60;99.90;;;;;;5066228;28;20069;-66
2024/02/05 09:42:11;;;;;;;13.15;4.25;;;14.50;99.90;;;;;;5065654;28;20069;-63
2024/02/05 09:44:39;;;;;;;12.93;4.22;;;14.40;99.90;;;;;;5064232;28;20100;-65
2024/02/05 09:47:08;;;;;;;11.85;4.80;;;14.40;99.90;;;;;;5066545;28;20192;-65
2024/02/05 09:49:36;;;;;;;9.95;4.20;;;14.40;99.90;;;;;;5066665;28;20127;-64
2024/02/05 09:52:07;;;;;;;13.30;5.07;;;14.40;99.90;;;;;;5070865;28;20069;-65
2024/02/05 09:54:39;;;;;;;12.25;4.70;;;14.40;99.90;;;;;;5066213;28;20069;-65
2024/02/05 09:57:11;;;;;;;26.42;5.05;;;14.40;99.90;;;;;;5065590;28;20078;-68
2024/02/05 09:59:41;;;;;;;11.90;4.72;;;14.40;99.90;;;;;;5067578;28;20158;-65
2024/02/05 10:02:08;;;;;;;13.18;4.25;;;14.40;99.90;;;;;;5070082;28;20083;-65
2024/02/05 10:04:40;;;;;;;13.18;4.30;;;14.50;99.90;;;;;;5069119;28;20116;-66
2024/02/05 10:07:15;;;;;;;16.88;5.15;;;14.50;99.90;;;;;;5067927;28;20084;-66
2024/02/05 10:09:42;;;;;;;13.25;6.40;;;14.50;99.90;;;;;;5068229;28;20211;-61
2024/02/05 10:12:11;;;;;;;18.30;8.75;;;14.40;99.90;;;;;;5068535;28;20077;-64
2024/02/05 10:14:40;;;;;;;13.50;5.32;;;14.30;99.90;;;;;;5069074;28;20084;-61
2024/02/05 10:17:07;;;;;;;7.90;4.15;;;14.30;99.90;;;;;;5067538;28;20126;-65
2024/02/05 10:19:37;;;;;;;12.73;3.65;;;14.40;99.90;;;;;;5068302;28;20550;-64
2024/02/05 10:22:07;;;;;;;11.77;4.00;;;14.40;99.90;;;;;;5068559;28;20302;-65
2024/02/05 10:24:38;;;;;;;15.43;4.45;;;14.40;99.90;;;;;;5067650;28;20142;-65
2024/02/05 10:27:05;;;;;;;10.55;3.95;;;14.30;99.90;;;;;;5067757;28;20160;-65
2024/02/05 10:29:31;;;;;;;14.77;4.72;;;14.30;99.90;;;;;;5071551;28;20132;-64
2024/02/05 10:31:58;;;;;;;14.52;5.30;;;14.30;99.90;;;;;;5067018;28;20080;-64
2024/02/05 10:34:25;;;;;;;16.92;6.68;;;14.30;99.90;;;;;;5069659;28;20069;-66
2024/02/05 10:36:52;;;;;;;19.92;7.30;;;14.20;99.90;;;;;;5079573;28;20133;-63
2024/02/05 10:39:23;;;;;;;21.58;7.15;;;14.20;99.90;;;;;;5067932;28;20525;-64
2024/02/05 10:41:52;;;;;;;24.95;8.38;;;14.20;99.90;;;;;;5068731;28;20115;-66
2024/02/05 10:44:18;;;;;;;18.95;7.55;;;14.30;99.90;;;;;;5067131;28;20093;-65
2024/02/05 10:46:49;;;;;;;15.60;6.90;;;14.20;99.90;;;;;;5067232;28;20108;-65
2024/02/05 10:49:16;;;;;;;17.40;7.40;;;14.10;99.90;;;;;;5066565;28;20171;-66
2024/02/05 10:51:44;;;;;;;23.35;7.72;;;14.20;99.90;;;;;;5067458;28;20073;-64
2024/02/05 10:54:11;;;;;;;27.90;9.18;;;14.10;99.90;;;;;;5067590;28;20076;-64
2024/02/05 10:56:41;;;;;;;24.77;10.88;;;14.10;99.90;;;;;;5069471;28;20677;-62
2024/02/05 10:59:11;;;;;;;28.67;12.77;;;14.10;99.90;;;;;;5080479;28;20073;-66
2024/02/05 11:01:47;;;;;;;26.73;11.73;;;14.10;99.90;;;;;;5077941;28;20096;-65
2024/02/05 11:04:17;;;;;;;28.20;13.50;;;14.20;99.90;;;;;;5078756;28;20072;-66
2024/02/05 11:06:48;;;;;;;26.48;12.60;;;14.10;99.90;;;;;;5074418;28;20088;-66
2024/02/05 11:09:15;;;;;;;33.08;14.43;;;14.10;99.90;;;;;;5069033;28;20112;-65
2024/02/05 11:11:45;;;;;;;33.33;12.55;;;14.20;99.90;;;;;;5066285;28;20115;-65
2024/02/05 11:14:15;;;;;;;29.55;12.18;;;14.20;99.90;;;;;;5075867;28;20080;-65
2024/02/05 11:16:44;;;;;;;29.23;11.65;;;14.20;99.90;;;;;;5066183;28;20564;-63
2024/02/05 11:19:15;;;;;;;30.50;11.55;;;14.20;99.90;;;;;;5066586;28;20123;-65
2024/02/05 11:21:48;;;;;;;31.63;12.07;;;14.20;99.90;;;;;;5063840;28;20087;-67
2024/02/05 11:24:16;;;;;;;23.55;10.98;;;14.10;99.90;;;;;;5064890;28;20076;-66
2024/02/05 11:26:42;;;;;;;30.23;11.65;;;14.10;99.90;;;;;;5067688;28;20087;-65
2024/02/05 11:29:09;;;;;;;28.73;12.07;;;14.20;99.90;;;;;;5067549;28;20097;-68
2024/02/05 11:31:38;;;;;;;30.30;13.02;;;14.20;99.90;;;;;;5066540;28;20080;-66
2024/02/05 11:34:10;;;;;;;30.67;15.23;;;14.30;99.90;;;;;;5067670;28;20176;-65
2024/02/05 11:36:45;;;;;;;37.10;15.73;;;14.20;99.90;;;;;;5067571;28;20091;-63
2024/02/05 11:39:12;;;;;;;38.80;14.80;;;14.20;99.90;;;;;;5075349;28;20524;-65
2024/02/05 11:41:39;;;;;;;36.45;15.07;;;14.10;99.90;;;;;;5068353;28;20671;-65
2024/02/05 11:44:14;;;;;;;29.85;14.82;;;14.10;99.90;;;;;;5065964;28;20073;-66
2024/02/05 11:46:41;;;;;;;40.63;16.35;;;14.00;99.90;;;;;;5065642;28;20116;-66
2024/02/05 11:49:08;;;;;;;38.83;17.77;;;14.00;99.90;;;;;;5063224;28;20107;-62
2024/02/05 11:51:39;;;;;;;36.30;16.55;;;13.90;99.90;;;;;;5067713;28;20174;-67
2024/02/05 11:54:07;;;;;;;39.58;18.27;;;14.00;99.90;;;;;;5066436;28;20127;-66
2024/02/05 11:56:33;;;;;;;44.85;18.35;;;13.90;99.90;;;;;;5067378;28;20073;-66
2024/02/05 11:58:59;;;;;;;45.95;17.95;;;14.00;99.90;;;;;;5065902;28;20077;-62
2024/02/05 12:01:26;;;;;;;43.25;18.88;;;14.00;99.90;;;;;;5067834;28;20073;-65
2024/02/05 12:03:54;;;;;;;44.80;21.10;;;13.90;99.90;;;;;;5065870;28;20073;-66
2024/02/05 12:06:20;;;;;;;45.65;21.85;;;14.00;99.90;;;;;;5065976;28;20525;-65
2024/02/05 12:08:47;;;;;;;47.72;21.92;;;13.90;99.90;;;;;;5065234;28;20072;-65
2024/02/05 12:11:14;;;;;;;49.80;21.95;;;13.90;99.90;;;;;;5066923;28;20127;-65
2024/02/05 12:13:40;;;;;;;45.15;21.45;;;13.80;99.90;;;;;;5065538;28;20074;-63
2024/02/05 12:16:14;;;;;;;42.45;20.80;;;13.80;99.90;;;;;;5075250;28;20491;-64
2024/02/05 12:18:40;;;;;;;50.97;23.10;;;13.90;99.90;;;;;;5066281;28;20491;-62
2024/02/05 12:21:08;;;;;;;48.65;22.58;;;13.90;99.90;;;;;;5068813;28;20061;-66
2024/02/05 12:23:36;;;;;;;60.25;24.60;;;13.80;99.90;;;;;;5064594;28;20073;-65
2024/02/05 12:26:03;;;;;;;61.42;24.95;;;13.90;99.90;;;;;;5072796;28;20444;-66
2024/02/05 12:28:30;;;;;;;51.97;24.45;;;13.80;99.90;;;;;;5067035;28;20073;-67
2024/02/05 12:30:58;;;;;;;55.30;25.48;;;13.70;99.90;;;;;;5068060;28;20754;-67
2024/02/05 12:33:26;;;;;;;49.85;24.35;;;13.70;99.90;;;;;;5066583;28;20081;-67
2024/02/05 12:36:07;;;;;;;50.33;24.70;;;13.70;99.90;;;;;;5067402;28;20115;-65